createdAt,value
2023-03-12T00:01:24.479Z,-6.08
2023-03-12T00:03:51.981Z,-6.05
2023-03-12T00:06:19.203Z,-6.02
2023-03-12T00:08:46.099Z,-5.97
2023-03-12T00:11:18.622Z,-5.97
2023-03-12T00:13:48.792Z,-5.96
2023-03-12T00:16:16.132Z,-5.97
2023-03-12T00:18:44.163Z,-6.00
2023-03-12T00:21:11.146Z,-6.00
2023-03-12T00:23:37.842Z,-5.99
2023-03-12T00:26:08.202Z,-5.98
2023-03-12T00:28:35.167Z,-5.98
2023-03-12T00:31:03.374Z,-6.00
2023-03-12T00:33:30.109Z,-6.02
2023-03-12T00:36:00.447Z,-6.00
2023-03-12T00:38:27.077Z,-6.00
2023-03-12T00:40:53.708Z,-6.00
2023-03-12T00:43:20.369Z,-5.99
2023-03-12T00:45:46.991Z,-5.96
2023-03-12T00:48:13.651Z,-6.01
2023-03-12T00:50:40.262Z,-6.11
2023-03-12T00:53:07.046Z,-6.17
2023-03-12T00:55:33.686Z,-6.28
2023-03-12T00:58:00.322Z,-6.37
2023-03-12T01:00:27.063Z,-6.41
2023-03-12T01:02:53.940Z,-6.39
2023-03-12T01:05:20.717Z,-6.39
2023-03-12T01:07:47.349Z,-6.40
2023-03-12T01:10:17.533Z,-6.46
2023-03-12T01:12:44.277Z,-6.55
2023-03-12T01:15:15.051Z,-6.62
2023-03-12T01:17:41.700Z,-6.74
2023-03-12T01:20:09.510Z,-6.79
2023-03-12T01:22:37.124Z,-6.76
2023-03-12T01:25:04.376Z,-6.71
2023-03-12T01:27:31.076Z,-6.66
2023-03-12T01:29:57.748Z,-6.59
2023-03-12T01:32:24.429Z,-6.52
2023-03-12T01:34:51.113Z,-6.49
2023-03-12T01:37:17.743Z,-6.47
2023-03-12T01:39:44.397Z,-6.45
2023-03-12T01:42:11.102Z,-6.42
2023-03-12T01:44:58.753Z,-6.39
2023-03-12T01:47:26.641Z,-6.34
2023-03-12T01:49:55.873Z,-6.31
2023-03-12T01:52:27.400Z,-6.28
2023-03-12T01:55:05.692Z,-6.30
2023-03-12T01:57:42.144Z,-6.33
2023-03-12T02:00:12.247Z,-6.40
2023-03-12T02:02:39.688Z,-6.48
2023-03-12T02:05:15.227Z,-6.56
2023-03-12T02:07:41.877Z,-6.62
2023-03-12T02:10:09.218Z,-6.68
2023-03-12T02:12:35.813Z,-6.72
2023-03-12T02:15:02.592Z,-6.76
2023-03-12T02:17:30.376Z,-6.75
2023-03-12T02:20:27.998Z,-6.76
2023-03-12T02:23:13.342Z,-6.77
2023-03-12T02:25:42.497Z,-6.78
2023-03-12T02:28:13.911Z,-6.81
2023-03-12T02:30:43.288Z,-6.84
2023-03-12T02:33:11.774Z,-6.84
2023-03-12T02:35:38.505Z,-6.84
2023-03-12T02:38:37.162Z,-6.84
2023-03-12T02:41:29.068Z,-6.87
2023-03-12T02:44:11.293Z,-6.87
2023-03-12T02:46:58.356Z,-6.86
2023-03-12T02:49:28.927Z,-6.85
2023-03-12T02:51:56.018Z,-6.86
2023-03-12T02:54:24.199Z,-6.83
2023-03-12T02:56:52.171Z,-6.81
2023-03-12T02:59:22.749Z,-6.77
2023-03-12T03:01:53.145Z,-6.75
2023-03-12T03:04:20.051Z,-6.74
2023-03-12T03:06:48.385Z,-6.72
2023-03-12T03:09:15.197Z,-6.72
2023-03-12T03:11:42.116Z,-6.73
2023-03-12T03:14:08.857Z,-6.71
2023-03-12T03:16:35.932Z,-6.75
2023-03-12T03:19:02.589Z,-6.75
2023-03-12T03:21:30.223Z,-6.76
2023-03-12T03:23:56.858Z,-6.76
2023-03-12T03:26:24.830Z,-6.77
2023-03-12T03:28:51.552Z,-6.81
2023-03-12T03:31:18.781Z,-6.82
2023-03-12T03:33:45.489Z,-6.84
2023-03-12T03:36:14.966Z,-6.87
2023-03-12T03:38:42.566Z,-6.89
2023-03-12T03:41:09.222Z,-6.88
2023-03-12T03:43:35.823Z,-6.90
2023-03-12T03:46:05.409Z,-6.90
2023-03-12T03:48:32.265Z,-6.89
2023-03-12T03:51:07.753Z,-6.89
2023-03-12T03:53:34.775Z,-6.89
2023-03-12T03:56:09.614Z,-6.89
2023-03-12T03:58:36.302Z,-6.86
2023-03-12T04:01:03.548Z,-6.86
2023-03-12T04:03:30.553Z,-6.85
2023-03-12T04:06:00.164Z,-6.85
2023-03-12T04:08:27.079Z,-6.84
2023-03-12T04:10:53.805Z,-6.85
2023-03-12T04:13:20.884Z,-6.80
2023-03-12T04:15:49.227Z,-6.79
2023-03-12T04:18:16.692Z,-6.80
2023-03-12T04:20:43.738Z,-6.82
2023-03-12T04:23:11.177Z,-6.85
2023-03-12T04:25:38.385Z,-6.82
2023-03-12T04:28:05.385Z,-6.76
2023-03-12T04:30:32.113Z,-6.70
2023-03-12T04:32:58.743Z,-6.62
2023-03-12T04:35:25.404Z,-6.56
2023-03-12T04:37:52.076Z,-6.50
2023-03-12T04:40:20.021Z,-6.46
2023-03-12T04:42:47.920Z,-6.44
2023-03-12T04:45:15.213Z,-6.40
2023-03-12T04:47:41.904Z,-6.37
2023-03-12T04:50:09.475Z,-6.40
2023-03-12T04:52:36.095Z,-6.44
2023-03-12T04:55:02.849Z,-6.46
2023-03-12T04:57:29.476Z,-6.45
2023-03-12T04:59:56.087Z,-6.45
2023-03-12T05:02:22.768Z,-6.47
2023-03-12T05:04:49.381Z,-6.49
2023-03-12T05:07:16.006Z,-6.52
2023-03-12T05:09:44.195Z,-6.52
2023-03-12T05:12:11.090Z,-6.53
2023-03-12T05:14:39.556Z,-6.51
2023-03-12T05:17:06.976Z,-6.51
2023-03-12T05:19:33.723Z,-6.50
2023-03-12T05:22:00.420Z,-6.49
2023-03-12T05:24:27.565Z,-6.47
2023-03-12T05:26:54.273Z,-6.45
2023-03-12T05:29:20.991Z,-6.41
2023-03-12T05:31:47.755Z,-6.36
2023-03-12T05:34:14.509Z,-6.32
2023-03-12T05:36:41.340Z,-6.27
2023-03-12T05:39:08.314Z,-6.24
2023-03-12T05:41:35.075Z,-6.21
2023-03-12T05:44:01.762Z,-6.16
2023-03-12T05:46:29.081Z,-6.12
2023-03-12T05:48:55.964Z,-6.09
2023-03-12T05:51:22.652Z,-6.06
2023-03-12T05:53:49.351Z,-6.01
2023-03-12T05:56:17.889Z,-5.98
2023-03-12T05:58:44.797Z,-5.95
2023-03-12T06:01:26.031Z,-5.91
2023-03-12T06:03:52.687Z,-5.87
2023-03-12T06:06:19.668Z,-5.82
2023-03-12T06:08:46.683Z,-5.79
2023-03-12T06:11:13.894Z,-5.73
2023-03-12T06:13:40.794Z,-5.66
2023-03-12T06:16:12.340Z,-5.60
2023-03-12T06:18:39.031Z,-5.52
2023-03-12T06:21:11.384Z,-5.45
2023-03-12T06:23:38.707Z,-5.37
2023-03-12T06:26:06.054Z,-5.30
2023-03-12T06:28:34.014Z,-5.22
2023-03-12T06:31:01.102Z,-5.17
2023-03-12T06:33:28.450Z,-5.12
2023-03-12T06:35:56.968Z,-5.08
2023-03-12T06:38:23.682Z,-5.05
2023-03-12T06:41:13.788Z,-5.01
2023-03-12T06:43:41.521Z,-4.98
2023-03-12T06:46:11.902Z,-4.93
2023-03-12T06:48:41.361Z,-4.89
2023-03-12T06:51:09.488Z,-4.86
2023-03-12T06:53:36.100Z,-4.84
2023-03-12T06:56:03.313Z,-4.83
2023-03-12T06:58:30.391Z,-4.81
2023-03-12T07:00:57.465Z,-4.79
2023-03-12T07:03:24.900Z,-4.74
2023-03-12T07:05:51.847Z,-4.71
2023-03-12T07:08:18.914Z,-4.68
2023-03-12T07:10:46.096Z,-4.65
2023-03-12T07:13:13.111Z,-4.61
2023-03-12T07:15:39.805Z,-4.57
2023-03-12T07:18:08.165Z,-4.48
2023-03-12T07:20:38.653Z,-4.41
2023-03-12T07:23:05.790Z,-4.34
2023-03-12T07:25:36.333Z,-4.26
2023-03-12T07:28:03.502Z,-4.20
2023-03-12T07:30:33.548Z,-4.12
2023-03-12T07:33:04.283Z,-4.05
2023-03-12T07:35:31.514Z,-4.00
2023-03-12T07:37:59.270Z,-3.96
2023-03-12T07:40:26.465Z,-3.95
2023-03-12T07:42:53.813Z,-3.93
2023-03-12T07:45:20.714Z,-3.91
2023-03-12T07:47:48.229Z,-3.88
2023-03-12T07:50:16.006Z,-3.83
2023-03-12T07:52:42.789Z,-3.78
2023-03-12T07:55:10.433Z,-3.74
2023-03-12T07:57:38.482Z,-3.68
2023-03-12T08:00:08.742Z,-3.67
2023-03-12T08:02:35.462Z,-3.67
2023-03-12T08:05:02.940Z,-3.64
2023-03-12T08:07:32.504Z,-3.63
2023-03-12T08:10:00.152Z,-3.63
2023-03-12T08:12:28.035Z,-3.56
2023-03-12T08:14:54.763Z,-3.47
2023-03-12T08:17:21.851Z,-3.39
2023-03-12T08:19:48.609Z,-3.39
2023-03-12T08:22:15.292Z,-3.39
2023-03-12T08:24:41.956Z,-3.39
2023-03-12T08:27:08.854Z,-3.45
2023-03-12T08:29:35.503Z,-3.49
2023-03-12T08:32:05.356Z,-3.56
2023-03-12T08:34:35.647Z,-3.54
2023-03-12T08:37:03.034Z,-3.47
2023-03-12T08:39:30.271Z,-3.38
2023-03-12T08:41:56.869Z,-3.31
2023-03-12T08:44:24.487Z,-3.22
2023-03-12T08:46:52.010Z,-3.14
2023-03-12T08:49:19.691Z,-3.10
2023-03-12T08:51:46.373Z,-3.07
2023-03-12T08:54:13.264Z,-2.91
2023-03-12T08:56:43.711Z,-2.48
2023-03-12T08:59:11.784Z,-2.04
2023-03-12T09:01:39.509Z,-1.89
2023-03-12T09:04:07.286Z,-1.79
2023-03-12T09:06:35.426Z,-1.79
2023-03-12T09:09:05.725Z,-1.79
2023-03-12T09:11:33.941Z,-1.81
2023-03-12T09:14:49.958Z,-1.82
2023-03-12T09:16:48.484Z,-1.88
2023-03-12T09:19:15.818Z,-1.93
2023-03-12T09:21:43.013Z,-1.99
2023-03-12T09:24:11.305Z,-2.01
2023-03-12T09:26:37.967Z,-2.03
2023-03-12T09:29:04.588Z,-2.06
2023-03-12T09:31:31.247Z,-2.05
2023-03-12T09:33:57.883Z,-2.06
2023-03-12T09:36:24.506Z,-2.08
2023-03-12T09:38:51.136Z,-2.03
2023-03-12T09:41:21.716Z,-1.99
2023-03-12T09:44:31.597Z,-2.01
2023-03-12T09:47:03.284Z,-1.96
2023-03-12T09:49:47.032Z,-1.97
2023-03-12T09:52:24.568Z,-1.98
2023-03-12T09:55:28.851Z,-1.94
2023-03-12T09:57:56.959Z,-1.85
2023-03-12T10:00:30.092Z,-1.81
2023-03-12T10:03:12.893Z,-1.75
2023-03-12T10:06:11.254Z,-1.62
2023-03-12T10:08:37.826Z,-1.53
2023-03-12T10:11:22.201Z,-1.52
2023-03-12T10:14:26.176Z,-1.41
2023-03-12T10:17:15.685Z,-1.28
2023-03-12T10:20:16.361Z,-1.19
2023-03-12T10:22:55.516Z,-1.10
2023-03-12T10:26:05.836Z,-1.07
2023-03-12T10:28:45.773Z,-1.08
2023-03-12T10:31:29.643Z,-0.99
2023-03-12T10:33:59.627Z,-0.93
2023-03-12T10:36:35.026Z,-0.88
2023-03-12T10:39:01.990Z,-0.86
2023-03-12T10:41:34.218Z,-0.82
2023-03-12T10:44:07.774Z,-0.74
2023-03-12T10:46:37.173Z,-0.79
2023-03-12T10:49:37.671Z,-0.84
2023-03-12T10:52:17.227Z,-0.84
2023-03-12T10:54:47.112Z,-0.84
2023-03-12T10:57:17.960Z,-0.79
2023-03-12T10:59:47.620Z,-0.73
2023-03-12T11:02:30.793Z,-0.68
2023-03-12T11:04:58.915Z,-0.72
2023-03-12T11:07:28.874Z,-0.71
2023-03-12T11:10:17.750Z,-0.66
2023-03-12T11:13:01.562Z,-0.64
2023-03-12T11:15:40.082Z,-0.63
2023-03-12T11:18:40.529Z,-0.63
2023-03-12T11:21:10.057Z,-0.57
2023-03-12T11:23:48.237Z,-0.50
2023-03-12T11:26:23.976Z,-0.50
2023-03-12T11:29:06.331Z,-0.49
2023-03-12T11:31:41.569Z,-0.51
2023-03-12T11:34:33.937Z,-0.49
2023-03-12T11:37:26.410Z,-0.43
2023-03-12T11:40:14.426Z,-0.35
2023-03-12T11:42:52.844Z,-0.35
2023-03-12T11:45:31.482Z,-0.36
2023-03-12T11:48:25.478Z,-0.35
2023-03-12T11:51:06.723Z,-0.27
2023-03-12T11:53:58.001Z,-0.17
2023-03-12T11:56:30.645Z,-0.13
2023-03-12T11:59:07.687Z,-0.18
2023-03-12T12:01:58.159Z,-0.25
2023-03-12T12:04:55.830Z,-0.30
2023-03-12T12:07:44.336Z,-0.22
2023-03-12T12:10:36.595Z,-0.25
2023-03-12T12:13:22.428Z,-0.26
2023-03-12T12:16:07.480Z,-0.25
2023-03-12T12:18:50.962Z,-0.23
2023-03-12T12:21:49.351Z,-0.23
2023-03-12T12:24:46.774Z,-0.19
2023-03-12T12:27:42.903Z,-0.18
2023-03-12T12:30:24.305Z,-0.19
2023-03-12T12:33:00.168Z,-0.21
2023-03-12T12:35:43.280Z,-0.17
2023-03-12T12:38:16.581Z,-0.12
2023-03-12T12:40:51.503Z,-0.12
2023-03-12T12:43:23.937Z,-0.13
2023-03-12T12:45:53.770Z,-0.12
2023-03-12T12:48:36.775Z,-0.10
2023-03-12T12:51:08.309Z,-0.04
2023-03-12T12:53:50.358Z,-0.01
2023-03-12T12:56:29.399Z,0.05
2023-03-12T12:59:31.673Z,0.10
2023-03-12T13:01:59.786Z,0.14
2023-03-12T13:04:32.350Z,0.12
2023-03-12T13:07:24.087Z,0.14
2023-03-12T13:09:57.091Z,0.16
2023-03-12T13:12:32.720Z,0.18
2023-03-12T13:15:01.524Z,0.21
2023-03-12T13:17:34.343Z,0.25
2023-03-12T13:20:10.943Z,0.29
2023-03-12T13:23:05.311Z,0.29
2023-03-12T13:26:01.552Z,0.26
2023-03-12T13:28:30.354Z,0.28
2023-03-12T13:30:58.803Z,0.30
2023-03-12T13:33:45.489Z,0.35
2023-03-12T13:36:23.894Z,0.38
2023-03-12T13:38:59.891Z,0.39
2023-03-12T13:41:34.373Z,0.43
2023-03-12T13:44:21.816Z,0.46
2023-03-12T13:47:18.522Z,0.48
2023-03-12T13:50:01.600Z,0.54
2023-03-12T13:52:37.895Z,0.57
2023-03-12T13:55:08.100Z,0.61
2023-03-12T13:57:55.229Z,0.66
2023-03-12T14:00:55.174Z,0.73
2023-03-12T14:03:27.710Z,0.76
2023-03-12T14:06:06.608Z,0.77
2023-03-12T14:08:45.011Z,0.78
2023-03-12T14:11:34.468Z,0.80
2023-03-12T14:14:24.173Z,0.82
2023-03-12T14:16:54.275Z,0.85
2023-03-12T14:19:25.379Z,0.88
2023-03-12T14:21:54.039Z,0.93
2023-03-12T14:24:28.792Z,0.97
2023-03-12T14:26:56.984Z,1.00
2023-03-12T14:29:41.406Z,1.10
2023-03-12T14:32:24.222Z,1.23
2023-03-12T14:35:15.602Z,1.20
2023-03-12T14:37:56.757Z,1.19
2023-03-12T14:40:45.984Z,1.18
2023-03-12T14:43:30.958Z,1.18
2023-03-12T14:46:00.243Z,1.23
2023-03-12T14:48:32.500Z,1.24
2023-03-12T14:51:00.726Z,1.25
2023-03-12T14:53:29.623Z,1.30
2023-03-12T14:56:34.850Z,1.37
2023-03-12T14:59:23.187Z,1.51
2023-03-12T15:01:50.171Z,1.57
2023-03-12T15:04:20.889Z,1.63
2023-03-12T15:06:51.039Z,1.66
2023-03-12T15:09:22.133Z,1.69
2023-03-12T15:11:58.843Z,1.65
2023-03-12T15:14:29.368Z,1.64
2023-03-12T15:16:59.398Z,1.64
2023-03-12T15:19:32.736Z,1.60
2023-03-12T15:22:00.028Z,1.53
2023-03-12T15:24:28.502Z,1.42
2023-03-12T15:26:55.181Z,1.33
2023-03-12T15:29:26.904Z,1.22
2023-03-12T15:32:00.994Z,1.13
2023-03-12T15:34:46.413Z,1.02
2023-03-12T15:37:32.430Z,0.94
2023-03-12T15:40:06.897Z,0.87
2023-03-12T15:42:46.172Z,0.83
2023-03-12T15:45:31.317Z,0.77
2023-03-12T15:47:58.081Z,0.70
2023-03-12T15:50:31.146Z,0.67
2023-03-12T15:52:59.260Z,0.60
2023-03-12T15:55:30.693Z,0.58
2023-03-12T15:57:59.587Z,0.55
2023-03-12T16:00:26.793Z,0.50
2023-03-12T16:02:54.906Z,0.43
2023-03-12T16:05:26.162Z,0.38
2023-03-12T16:07:52.908Z,0.30
2023-03-12T16:10:23.012Z,0.23
2023-03-12T16:12:52.621Z,0.17
2023-03-12T16:15:29.641Z,0.10
2023-03-12T16:17:56.265Z,0.02
2023-03-12T16:20:22.878Z,-0.04
2023-03-12T16:22:49.506Z,-0.10
2023-03-12T16:25:16.215Z,-0.14
2023-03-12T16:27:55.295Z,-0.19
2023-03-12T16:30:34.153Z,-0.23
2023-03-12T16:33:02.283Z,-0.28
2023-03-12T16:35:31.310Z,-0.33
2023-03-12T16:38:01.359Z,-0.41
2023-03-12T16:40:34.971Z,-0.47
2023-03-12T16:43:05.861Z,-0.54
2023-03-12T16:45:35.866Z,-0.59
2023-03-12T16:48:05.396Z,-0.64
2023-03-12T16:50:32.387Z,-0.69
2023-03-12T16:52:59.027Z,-0.72
2023-03-12T16:55:39.578Z,-0.78
2023-03-12T16:58:07.195Z,-0.81
2023-03-12T17:00:34.483Z,-0.87
2023-03-12T17:03:01.933Z,-0.90
2023-03-12T17:05:30.139Z,-0.93
2023-03-12T17:07:57.644Z,-0.97
2023-03-12T17:10:25.815Z,-0.99
2023-03-12T17:12:53.487Z,-1.03
2023-03-12T17:15:22.933Z,-1.08
2023-03-12T17:17:50.118Z,-1.11
2023-03-12T17:20:19.525Z,-1.16
2023-03-12T17:22:46.412Z,-1.18
2023-03-12T17:25:30.715Z,-1.21
2023-03-12T17:27:57.979Z,-1.24
2023-03-12T17:30:25.456Z,-1.27
2023-03-12T17:32:53.348Z,-1.30
2023-03-12T17:35:20.567Z,-1.34
2023-03-12T17:37:51.107Z,-1.37
2023-03-12T17:40:18.108Z,-1.38
2023-03-12T17:42:44.913Z,-1.39
2023-03-12T17:45:11.652Z,-1.44
2023-03-12T17:47:38.862Z,-1.45
2023-03-12T17:50:06.987Z,-1.49
2023-03-12T17:52:34.269Z,-1.51
2023-03-12T17:55:01.239Z,-1.55
2023-03-12T17:57:28.294Z,-1.57
2023-03-12T17:59:55.156Z,-1.61
2023-03-12T18:02:21.805Z,-1.66
2023-03-12T18:04:48.673Z,-1.69
2023-03-12T18:07:15.304Z,-1.76
2023-03-12T18:09:41.988Z,-1.79
2023-03-12T18:12:11.263Z,-1.81
2023-03-12T18:14:38.257Z,-1.84
2023-03-12T18:17:05.165Z,-1.86
2023-03-12T18:19:31.897Z,-1.89
2023-03-12T18:21:58.614Z,-1.93
2023-03-12T18:24:25.309Z,-1.97
2023-03-12T18:26:52.581Z,-1.98
2023-03-12T18:29:19.227Z,-2.01
2023-03-12T18:31:45.916Z,-2.04
2023-03-12T18:34:12.568Z,-2.08
2023-03-12T18:36:39.214Z,-2.14
2023-03-12T18:39:06.617Z,-2.15
2023-03-12T18:41:33.618Z,-2.20
2023-03-12T18:44:00.689Z,-2.24
2023-03-12T18:46:28.022Z,-2.24
2023-03-12T18:48:54.856Z,-2.29
2023-03-12T18:51:21.478Z,-2.31
2023-03-12T18:53:48.189Z,-2.35
2023-03-12T18:56:14.818Z,-2.39
2023-03-12T18:58:41.507Z,-2.42
2023-03-12T19:01:08.242Z,-2.45
2023-03-12T19:03:36.535Z,-2.45
2023-03-12T19:06:12.475Z,-2.47
2023-03-12T19:08:39.548Z,-2.49
2023-03-12T19:11:11.571Z,-2.50
2023-03-12T19:13:38.678Z,-2.52
2023-03-12T19:16:08.778Z,-2.54
2023-03-12T19:18:36.754Z,-2.57
2023-03-12T19:21:03.634Z,-2.60
2023-03-12T19:23:30.261Z,-2.62
2023-03-12T19:25:56.884Z,-2.67
2023-03-12T19:28:23.545Z,-2.68
2023-03-12T19:30:50.197Z,-2.71
2023-03-12T19:33:16.858Z,-2.75
2023-03-12T19:35:43.554Z,-2.79
2023-03-12T19:38:10.230Z,-2.80
2023-03-12T19:40:36.868Z,-2.83
2023-03-12T19:43:03.513Z,-2.85
2023-03-12T19:45:30.192Z,-2.87
2023-03-12T19:47:57.042Z,-2.91
2023-03-12T19:50:24.210Z,-2.95
2023-03-12T19:52:50.944Z,-2.98
2023-03-12T19:55:17.806Z,-3.02
2023-03-12T19:57:44.491Z,-3.07
2023-03-12T20:00:12.321Z,-3.10
2023-03-12T20:02:39.909Z,-3.12
2023-03-12T20:05:08.009Z,-3.15
2023-03-12T20:07:35.210Z,-3.17
2023-03-12T20:10:01.851Z,-3.20
2023-03-12T20:12:28.482Z,-3.22
2023-03-12T20:14:55.099Z,-3.23
2023-03-12T20:17:21.792Z,-3.24
2023-03-12T20:19:48.408Z,-3.25
2023-03-12T20:22:15.376Z,-3.26
2023-03-12T20:24:42.051Z,-3.27
2023-03-12T20:27:08.693Z,-3.28
2023-03-12T20:29:35.319Z,-3.28
2023-03-12T20:32:01.955Z,-3.31
2023-03-12T20:34:28.629Z,-3.33
2023-03-12T20:36:55.237Z,-3.34
2023-03-12T20:39:21.824Z,-3.31
2023-03-12T20:41:49.330Z,-3.29
2023-03-12T20:44:16.698Z,-3.28
2023-03-12T20:46:43.337Z,-3.31
2023-03-12T20:49:09.988Z,-3.29
2023-03-12T20:51:36.608Z,-3.26
2023-03-12T20:54:03.272Z,-3.26
2023-03-12T20:56:29.953Z,-3.24
2023-03-12T20:58:57.231Z,-3.24
2023-03-12T21:01:24.506Z,-3.25
2023-03-12T21:03:51.467Z,-3.27
2023-03-12T21:06:18.220Z,-3.29
2023-03-12T21:08:44.807Z,-3.31
2023-03-12T21:11:11.538Z,-3.36
2023-03-12T21:13:38.152Z,-3.40
2023-03-12T21:16:06.003Z,-3.43
2023-03-12T21:18:33.058Z,-3.45
2023-03-12T21:21:04.623Z,-3.46
2023-03-12T21:23:32.266Z,-3.48
2023-03-12T21:26:01.015Z,-3.50
2023-03-12T21:28:28.584Z,-3.50
2023-03-12T21:30:55.623Z,-3.52
2023-03-12T21:33:22.262Z,-3.53
2023-03-12T21:35:48.947Z,-3.55
2023-03-12T21:38:15.686Z,-3.59
2023-03-12T21:40:42.342Z,-3.61
2023-03-12T21:43:08.960Z,-3.61
2023-03-12T21:45:35.589Z,-3.63
2023-03-12T21:48:02.226Z,-3.65
2023-03-12T21:50:28.925Z,-3.65
2023-03-12T21:52:55.549Z,-3.70
2023-03-12T21:55:22.179Z,-3.72
2023-03-12T21:57:48.800Z,-3.76
2023-03-12T22:00:15.723Z,-3.79
2023-03-12T22:02:44.633Z,-3.83
2023-03-12T22:05:12.173Z,-3.85
2023-03-12T22:07:39.061Z,-3.87
2023-03-12T22:10:07.544Z,-3.90
2023-03-12T22:12:34.182Z,-3.92
2023-03-12T22:15:00.842Z,-3.94
2023-03-12T22:17:27.802Z,-3.95
2023-03-12T22:19:54.634Z,-3.95
2023-03-12T22:22:21.276Z,-3.94
2023-03-12T22:24:47.929Z,-3.93
2023-03-12T22:27:14.547Z,-3.94
2023-03-12T22:29:42.731Z,-3.95
2023-03-12T22:32:09.369Z,-3.92
2023-03-12T22:34:36.081Z,-3.93
2023-03-12T22:37:02.911Z,-3.98
2023-03-12T22:39:29.518Z,-4.00
2023-03-12T22:41:56.191Z,-4.01
2023-03-12T22:44:22.829Z,-4.01
2023-03-12T22:46:51.070Z,-4.02
2023-03-12T22:49:17.792Z,-4.00
2023-03-12T22:51:44.421Z,-4.00
2023-03-12T22:54:11.072Z,-3.98
2023-03-12T22:56:37.719Z,-4.00
2023-03-12T22:59:04.384Z,-4.04
2023-03-12T23:01:31.162Z,-4.08
2023-03-12T23:03:57.913Z,-4.14
2023-03-12T23:06:27.015Z,-4.16
2023-03-12T23:08:55.171Z,-4.17
2023-03-12T23:11:25.287Z,-4.17
2023-03-12T23:13:52.748Z,-4.18
2023-03-12T23:16:22.110Z,-4.21
2023-03-12T23:18:49.237Z,-4.23
2023-03-12T23:21:19.050Z,-4.27
2023-03-12T23:23:46.158Z,-4.26
2023-03-12T23:26:19.110Z,-4.27
2023-03-12T23:28:51.148Z,-4.29
2023-03-12T23:31:18.034Z,-4.36
2023-03-12T23:33:45.121Z,-4.44
2023-03-12T23:36:21.069Z,-4.50
2023-03-12T23:38:48.764Z,-4.56
2023-03-12T23:41:19.547Z,-4.63
2023-03-12T23:43:46.382Z,-4.69
2023-03-12T23:46:16.930Z,-4.68
2023-03-12T23:48:45.507Z,-4.65
2023-03-12T23:51:22.320Z,-4.65
2023-03-12T23:53:51.190Z,-4.68
2023-03-12T23:56:23.460Z,-4.68
2023-03-12T23:58:51.079Z,-4.70
